sensor_id;sensor_type;location;lat;lon;timestamp;P1;durP1;ratioP1;P2;durP2;ratioP2
4700;SDS011;8724;51.272;6.554;2022-10-31T00:01:20;10.40;;;7.20;;
4700;SDS011;8724;51.272;6.554;2022-10-31T00:03:52;9.50;;;6.37;;
4700;SDS011;8724;51.272;6.554;2022-10-31T00:06:21;9.57;;;6.80;;
4700;SDS011;8724;51.272;6.554;2022-10-31T00:08:51;9.80;;;6.90;;
4700;SDS011;8724;51.272;6.554;2022-10-31T00:11:20;8.93;;;6.20;;
4700;SDS011;8724;51.272;6.554;2022-10-31T00:13:49;10.30;;;7.13;;
4700;SDS011;8724;51.272;6.554;2022-10-31T00:16:18;11.03;;;7.20;;
4700;SDS011;8724;51.272;6.554;2022-10-31T00:18:47;8.03;;;6.90;;
4700;SDS011;8724;51.272;6.554;2022-10-31T00:21:18;10.50;;;7.40;;
4700;SDS011;8724;51.272;6.554;2022-10-31T00:23:47;11.77;;;7.23;;
4700;SDS011;8724;51.272;6.554;2022-10-31T00:26:15;8.77;;;6.47;;
4700;SDS011;8724;51.272;6.554;2022-10-31T00:28:44;10.03;;;6.90;;
4700;SDS011;8724;51.272;6.554;2022-10-31T00:31:12;10.70;;;6.87;;
4700;SDS011;8724;51.272;6.554;2022-10-31T00:33:41;9.13;;;6.80;;
4700;SDS011;8724;51.272;6.554;2022-10-31T00:36:11;10.33;;;6.60;;
4700;SDS011;8724;51.272;6.554;2022-10-31T00:38:42;7.90;;;7.00;;
4700;SDS011;8724;51.272;6.554;2022-10-31T00:41:11;8.67;;;6.70;;
4700;SDS011;8724;51.272;6.554;2022-10-31T00:43:42;8.60;;;6.30;;
4700;SDS011;8724;51.272;6.554;2022-10-31T00:46:11;9.40;;;7.57;;
4700;SDS011;8724;51.272;6.554;2022-10-31T00:48:40;8.80;;;7.37;;
4700;SDS011;8724;51.272;6.554;2022-10-31T00:51:08;11.63;;;6.73;;
4700;SDS011;8724;51.272;6.554;2022-10-31T00:53:39;8.53;;;6.27;;
4700;SDS011;8724;51.272;6.554;2022-10-31T00:56:09;7.90;;;7.10;;
4700;SDS011;8724;51.272;6.554;2022-10-31T00:58:37;9.43;;;6.93;;
4700;SDS011;8724;51.272;6.554;2022-10-31T01:01:07;8.37;;;6.77;;
4700;SDS011;8724;51.272;6.554;2022-10-31T01:03:36;8.33;;;6.47;;
4700;SDS011;8724;51.272;6.554;2022-10-31T01:06:11;8.27;;;6.43;;
4700;SDS011;8724;51.272;6.554;2022-10-31T01:08:41;10.73;;;7.20;;
4700;SDS011;8724;51.272;6.554;2022-10-31T01:11:12;8.53;;;6.63;;
4700;SDS011;8724;51.272;6.554;2022-10-31T01:13:43;12.23;;;7.57;;
4700;SDS011;8724;51.272;6.554;2022-10-31T01:16:12;8.23;;;6.77;;
4700;SDS011;8724;51.272;6.554;2022-10-31T01:18:41;8.37;;;7.30;;
4700;SDS011;8724;51.272;6.554;2022-10-31T01:21:10;7.40;;;6.50;;
4700;SDS011;8724;51.272;6.554;2022-10-31T01:23:40;8.87;;;6.63;;
4700;SDS011;8724;51.272;6.554;2022-10-31T01:26:13;15.63;;;7.47;;
4700;SDS011;8724;51.272;6.554;2022-10-31T01:28:46;14.33;;;7.17;;
4700;SDS011;8724;51.272;6.554;2022-10-31T01:31:16;11.13;;;7.40;;
4700;SDS011;8724;51.272;6.554;2022-10-31T01:33:45;17.13;;;6.77;;
4700;SDS011;8724;51.272;6.554;2022-10-31T01:36:15;11.10;;;7.80;;
4700;SDS011;8724;51.272;6.554;2022-10-31T01:38:47;10.33;;;6.97;;
4700;SDS011;8724;51.272;6.554;2022-10-31T01:41:17;9.30;;;6.87;;
4700;SDS011;8724;51.272;6.554;2022-10-31T01:43:48;7.57;;;6.67;;
4700;SDS011;8724;51.272;6.554;2022-10-31T01:46:20;13.63;;;6.70;;
4700;SDS011;8724;51.272;6.554;2022-10-31T01:48:52;10.37;;;7.20;;
4700;SDS011;8724;51.272;6.554;2022-10-31T01:51:23;13.03;;;6.77;;
4700;SDS011;8724;51.272;6.554;2022-10-31T01:53:57;11.00;;;7.40;;
4700;SDS011;8724;51.272;6.554;2022-10-31T01:56:29;8.63;;;6.40;;
4700;SDS011;8724;51.272;6.554;2022-10-31T01:58:58;12.60;;;7.30;;
4700;SDS011;8724;51.272;6.554;2022-10-31T02:01:28;9.83;;;6.40;;
4700;SDS011;8724;51.272;6.554;2022-10-31T02:03:57;11.30;;;7.90;;
4700;SDS011;8724;51.272;6.554;2022-10-31T02:06:27;7.60;;;6.67;;
4700;SDS011;8724;51.272;6.554;2022-10-31T02:09:03;10.37;;;6.70;;
4700;SDS011;8724;51.272;6.554;2022-10-31T02:11:32;10.33;;;7.57;;
4700;SDS011;8724;51.272;6.554;2022-10-31T02:14:03;10.17;;;7.33;;
4700;SDS011;8724;51.272;6.554;2022-10-31T02:16:32;8.57;;;6.93;;
4700;SDS011;8724;51.272;6.554;2022-10-31T02:19:01;9.37;;;6.93;;
4700;SDS011;8724;51.272;6.554;2022-10-31T02:21:33;10.60;;;7.50;;
4700;SDS011;8724;51.272;6.554;2022-10-31T02:27:21;11.30;;;6.13;;
4700;SDS011;8724;51.272;6.554;2022-10-31T02:30:20;7.60;;;6.83;;
4700;SDS011;8724;51.272;6.554;2022-10-31T02:32:57;8.50;;;7.30;;
4700;SDS011;8724;51.272;6.554;2022-10-31T02:35:46;9.00;;;6.90;;
4700;SDS011;8724;51.272;6.554;2022-10-31T02:38:27;10.07;;;7.63;;
4700;SDS011;8724;51.272;6.554;2022-10-31T02:41:08;8.00;;;7.07;;
4700;SDS011;8724;51.272;6.554;2022-10-31T02:43:52;10.93;;;7.50;;
4700;SDS011;8724;51.272;6.554;2022-10-31T02:46:28;9.60;;;6.93;;
4700;SDS011;8724;51.272;6.554;2022-10-31T02:49:07;12.90;;;7.53;;
4700;SDS011;8724;51.272;6.554;2022-10-31T02:51:39;14.13;;;7.23;;
4700;SDS011;8724;51.272;6.554;2022-10-31T02:54:16;13.47;;;7.37;;
4700;SDS011;8724;51.272;6.554;2022-10-31T02:56:49;11.40;;;6.50;;
4700;SDS011;8724;51.272;6.554;2022-10-31T02:59:22;9.27;;;8.33;;
4700;SDS011;8724;51.272;6.554;2022-10-31T03:02:01;9.07;;;7.00;;
4700;SDS011;8724;51.272;6.554;2022-10-31T03:04:45;8.67;;;6.87;;
4700;SDS011;8724;51.272;6.554;2022-10-31T03:07:25;11.50;;;7.47;;
4700;SDS011;8724;51.272;6.554;2022-10-31T03:10:03;12.30;;;6.90;;
4700;SDS011;8724;51.272;6.554;2022-10-31T03:12:42;12.93;;;7.60;;
4700;SDS011;8724;51.272;6.554;2022-10-31T03:15:19;13.30;;;8.47;;
4700;SDS011;8724;51.272;6.554;2022-10-31T03:17:52;9.30;;;7.20;;
4700;SDS011;8724;51.272;6.554;2022-10-31T03:20:30;8.77;;;7.17;;
4700;SDS011;8724;51.272;6.554;2022-10-31T03:23:04;12.40;;;7.50;;
4700;SDS011;8724;51.272;6.554;2022-10-31T03:25:35;8.13;;;7.03;;
4700;SDS011;8724;51.272;6.554;2022-10-31T03:28:07;14.17;;;7.80;;
4700;SDS011;8724;51.272;6.554;2022-10-31T03:30:40;14.93;;;7.63;;
4700;SDS011;8724;51.272;6.554;2022-10-31T03:33:12;11.33;;;8.00;;
4700;SDS011;8724;51.272;6.554;2022-10-31T03:35:46;7.80;;;6.43;;
4700;SDS011;8724;51.272;6.554;2022-10-31T03:38:18;6.30;;;5.70;;
4700;SDS011;8724;51.272;6.554;2022-10-31T03:40:48;10.23;;;7.07;;
4700;SDS011;8724;51.272;6.554;2022-10-31T03:43:22;7.60;;;6.50;;
4700;SDS011;8724;51.272;6.554;2022-10-31T03:45:55;9.33;;;7.43;;
4700;SDS011;8724;51.272;6.554;2022-10-31T03:48:24;12.87;;;7.03;;
4700;SDS011;8724;51.272;6.554;2022-10-31T03:50:57;15.83;;;6.33;;
4700;SDS011;8724;51.272;6.554;2022-10-31T03:53:33;8.97;;;6.57;;
4700;SDS011;8724;51.272;6.554;2022-10-31T03:56:08;11.03;;;7.43;;
4700;SDS011;8724;51.272;6.554;2022-10-31T03:58:42;9.20;;;7.10;;
4700;SDS011;8724;51.272;6.554;2022-10-31T04:01:15;10.90;;;8.00;;
4700;SDS011;8724;51.272;6.554;2022-10-31T04:03:47;9.33;;;7.80;;
4700;SDS011;8724;51.272;6.554;2022-10-31T04:06:18;7.80;;;6.77;;
4700;SDS011;8724;51.272;6.554;2022-10-31T04:08:51;8.70;;;7.20;;
4700;SDS011;8724;51.272;6.554;2022-10-31T04:11:28;10.63;;;7.27;;
4700;SDS011;8724;51.272;6.554;2022-10-31T04:14:21;9.90;;;7.33;;
4700;SDS011;8724;51.272;6.554;2022-10-31T04:16:55;11.90;;;6.93;;
4700;SDS011;8724;51.272;6.554;2022-10-31T04:19:33;11.00;;;7.27;;
4700;SDS011;8724;51.272;6.554;2022-10-31T04:22:03;9.87;;;6.73;;
4700;SDS011;8724;51.272;6.554;2022-10-31T04:24:32;13.17;;;6.53;;
4700;SDS011;8724;51.272;6.554;2022-10-31T04:27:01;7.73;;;6.23;;
4700;SDS011;8724;51.272;6.554;2022-10-31T04:29:29;9.50;;;6.47;;
4700;SDS011;8724;51.272;6.554;2022-10-31T04:31:58;8.60;;;5.87;;
4700;SDS011;8724;51.272;6.554;2022-10-31T04:34:26;11.10;;;6.13;;
4700;SDS011;8724;51.272;6.554;2022-10-31T04:36:54;8.13;;;6.57;;
4700;SDS011;8724;51.272;6.554;2022-10-31T04:39:25;6.30;;;5.70;;
4700;SDS011;8724;51.272;6.554;2022-10-31T04:42:16;10.60;;;6.30;;
4700;SDS011;8724;51.272;6.554;2022-10-31T04:44:45;9.03;;;6.53;;
4700;SDS011;8724;51.272;6.554;2022-10-31T04:47:14;8.00;;;6.70;;
4700;SDS011;8724;51.272;6.554;2022-10-31T04:49:45;8.13;;;7.13;;
4700;SDS011;8724;51.272;6.554;2022-10-31T04:52:18;8.47;;;6.90;;
4700;SDS011;8724;51.272;6.554;2022-10-31T04:54:52;13.80;;;6.50;;
4700;SDS011;8724;51.272;6.554;2022-10-31T04:57:56;10.40;;;7.60;;
4700;SDS011;8724;51.272;6.554;2022-10-31T05:00:27;10.17;;;6.10;;
4700;SDS011;8724;51.272;6.554;2022-10-31T05:02:57;10.47;;;6.70;;
4700;SDS011;8724;51.272;6.554;2022-10-31T05:05:30;10.07;;;7.23;;
4700;SDS011;8724;51.272;6.554;2022-10-31T05:08:05;12.73;;;8.50;;
4700;SDS011;8724;51.272;6.554;2022-10-31T05:10:36;11.77;;;7.27;;
4700;SDS011;8724;51.272;6.554;2022-10-31T05:13:06;13.17;;;7.50;;
4700;SDS011;8724;51.272;6.554;2022-10-31T05:15:56;11.73;;;7.50;;
4700;SDS011;8724;51.272;6.554;2022-10-31T05:18:38;15.53;;;6.77;;
4700;SDS011;8724;51.272;6.554;2022-10-31T05:21:47;15.80;;;7.13;;
4700;SDS011;8724;51.272;6.554;2022-10-31T05:24:21;10.17;;;6.40;;
4700;SDS011;8724;51.272;6.554;2022-10-31T05:26:53;10.87;;;7.40;;
4700;SDS011;8724;51.272;6.554;2022-10-31T05:29:22;11.40;;;7.57;;
4700;SDS011;8724;51.272;6.554;2022-10-31T05:31:52;8.90;;;6.90;;
4700;SDS011;8724;51.272;6.554;2022-10-31T05:34:43;12.53;;;7.43;;
4700;SDS011;8724;51.272;6.554;2022-10-31T05:37:35;12.13;;;8.13;;
4700;SDS011;8724;51.272;6.554;2022-10-31T05:40:07;43.80;;;28.27;;
4700;SDS011;8724;51.272;6.554;2022-10-31T05:42:43;20.90;;;12.97;;
4700;SDS011;8724;51.272;6.554;2022-10-31T05:45:17;12.60;;;8.90;;
4700;SDS011;8724;51.272;6.554;2022-10-31T05:47:52;14.20;;;8.17;;
4700;SDS011;8724;51.272;6.554;2022-10-31T05:50:43;12.80;;;6.57;;
4700;SDS011;8724;51.272;6.554;2022-10-31T05:53:11;11.10;;;6.67;;
4700;SDS011;8724;51.272;6.554;2022-10-31T05:55:41;7.47;;;6.10;;
4700;SDS011;8724;51.272;6.554;2022-10-31T05:58:15;11.33;;;7.50;;
4700;SDS011;8724;51.272;6.554;2022-10-31T06:00:51;12.63;;;6.57;;
4700;SDS011;8724;51.272;6.554;2022-10-31T06:03:21;9.33;;;7.13;;
4700;SDS011;8724;51.272;6.554;2022-10-31T06:06:00;14.13;;;6.50;;
4700;SDS011;8724;51.272;6.554;2022-10-31T06:08:35;10.50;;;7.10;;
4700;SDS011;8724;51.272;6.554;2022-10-31T06:11:13;12.93;;;7.70;;
4700;SDS011;8724;51.272;6.554;2022-10-31T06:14:03;13.90;;;7.50;;
4700;SDS011;8724;51.272;6.554;2022-10-31T06:16:51;14.77;;;7.73;;
4700;SDS011;8724;51.272;6.554;2022-10-31T06:19:51;12.37;;;6.93;;
4700;SDS011;8724;51.272;6.554;2022-10-31T06:22:24;12.30;;;7.83;;
4700;SDS011;8724;51.272;6.554;2022-10-31T06:24:54;45.13;;;36.23;;
4700;SDS011;8724;51.272;6.554;2022-10-31T06:27:29;28.47;;;21.53;;
4700;SDS011;8724;51.272;6.554;2022-10-31T06:30:08;16.67;;;11.73;;
4700;SDS011;8724;51.272;6.554;2022-10-31T06:32:39;10.57;;;8.40;;
4700;SDS011;8724;51.272;6.554;2022-10-31T06:35:08;16.37;;;7.50;;
4700;SDS011;8724;51.272;6.554;2022-10-31T06:37:38;11.70;;;7.80;;
4700;SDS011;8724;51.272;6.554;2022-10-31T06:40:26;7.80;;;6.33;;
4700;SDS011;8724;51.272;6.554;2022-10-31T06:43:15;14.93;;;7.60;;
4700;SDS011;8724;51.272;6.554;2022-10-31T06:45:45;12.00;;;7.23;;
4700;SDS011;8724;51.272;6.554;2022-10-31T06:48:26;9.13;;;6.23;;
4700;SDS011;8724;51.272;6.554;2022-10-31T06:51:13;10.10;;;6.97;;
4700;SDS011;8724;51.272;6.554;2022-10-31T06:53:42;8.40;;;5.60;;
4700;SDS011;8724;51.272;6.554;2022-10-31T06:56:12;7.80;;;6.20;;
4700;SDS011;8724;51.272;6.554;2022-10-31T06:58:45;8.80;;;5.53;;
4700;SDS011;8724;51.272;6.554;2022-10-31T07:01:17;8.00;;;6.37;;
4700;SDS011;8724;51.272;6.554;2022-10-31T07:03:46;7.87;;;5.50;;
4700;SDS011;8724;51.272;6.554;2022-10-31T07:06:15;7.70;;;6.33;;
4700;SDS011;8724;51.272;6.554;2022-10-31T07:08:43;9.33;;;5.23;;
4700;SDS011;8724;51.272;6.554;2022-10-31T07:11:12;12.60;;;8.73;;
4700;SDS011;8724;51.272;6.554;2022-10-31T07:13:41;21.73;;;15.50;;
4700;SDS011;8724;51.272;6.554;2022-10-31T07:16:09;9.70;;;8.70;;
4700;SDS011;8724;51.272;6.554;2022-10-31T07:18:41;11.50;;;6.80;;
4700;SDS011;8724;51.272;6.554;2022-10-31T07:21:13;10.00;;;6.83;;
4700;SDS011;8724;51.272;6.554;2022-10-31T07:23:42;8.73;;;5.47;;
4700;SDS011;8724;51.272;6.554;2022-10-31T07:26:48;9.63;;;5.90;;
4700;SDS011;8724;51.272;6.554;2022-10-31T07:29:17;9.80;;;6.40;;
4700;SDS011;8724;51.272;6.554;2022-10-31T07:31:45;12.30;;;7.40;;
4700;SDS011;8724;51.272;6.554;2022-10-31T07:34:21;9.80;;;6.40;;
4700;SDS011;8724;51.272;6.554;2022-10-31T07:37:10;10.93;;;6.47;;
4700;SDS011;8724;51.272;6.554;2022-10-31T07:39:39;8.90;;;6.70;;
4700;SDS011;8724;51.272;6.554;2022-10-31T07:42:07;11.20;;;7.33;;
4700;SDS011;8724;51.272;6.554;2022-10-31T07:44:37;15.60;;;7.27;;
4700;SDS011;8724;51.272;6.554;2022-10-31T07:47:44;10.50;;;6.60;;
4700;SDS011;8724;51.272;6.554;2022-10-31T07:50:32;20.77;;;12.43;;
4700;SDS011;8724;51.272;6.554;2022-10-31T07:53:20;20.40;;;15.73;;
4700;SDS011;8724;51.272;6.554;2022-10-31T07:56:00;12.93;;;10.60;;
4700;SDS011;8724;51.272;6.554;2022-10-31T07:58:29;13.27;;;8.00;;
4700;SDS011;8724;51.272;6.554;2022-10-31T08:00:58;19.53;;;8.57;;
4700;SDS011;8724;51.272;6.554;2022-10-31T08:03:37;7.93;;;6.60;;
4700;SDS011;8724;51.272;6.554;2022-10-31T08:06:35;13.00;;;7.90;;
4700;SDS011;8724;51.272;6.554;2022-10-31T08:09:18;10.83;;;6.87;;
4700;SDS011;8724;51.272;6.554;2022-10-31T08:11:48;8.87;;;6.93;;
4700;SDS011;8724;51.272;6.554;2022-10-31T08:14:17;11.63;;;6.10;;
4700;SDS011;8724;51.272;6.554;2022-10-31T08:16:45;10.30;;;7.10;;
4700;SDS011;8724;51.272;6.554;2022-10-31T08:19:14;10.03;;;6.70;;
4700;SDS011;8724;51.272;6.554;2022-10-31T08:21:44;9.90;;;5.97;;
4700;SDS011;8724;51.272;6.554;2022-10-31T08:24:13;8.17;;;6.50;;
4700;SDS011;8724;51.272;6.554;2022-10-31T08:26:44;9.53;;;7.00;;
4700;SDS011;8724;51.272;6.554;2022-10-31T08:29:12;10.70;;;7.00;;
4700;SDS011;8724;51.272;6.554;2022-10-31T08:31:42;7.57;;;6.00;;
4700;SDS011;8724;51.272;6.554;2022-10-31T08:34:29;7.33;;;6.00;;
4700;SDS011;8724;51.272;6.554;2022-10-31T08:37:18;9.33;;;5.97;;
4700;SDS011;8724;51.272;6.554;2022-10-31T08:39:52;8.57;;;6.17;;
4700;SDS011;8724;51.272;6.554;2022-10-31T08:42:20;7.17;;;5.67;;
4700;SDS011;8724;51.272;6.554;2022-10-31T08:44:49;9.77;;;6.77;;
4700;SDS011;8724;51.272;6.554;2022-10-31T08:47:20;9.60;;;6.60;;
4700;SDS011;8724;51.272;6.554;2022-10-31T08:49:49;9.87;;;6.57;;
4700;SDS011;8724;51.272;6.554;2022-10-31T08:52:23;13.83;;;7.53;;
4700;SDS011;8724;51.272;6.554;2022-10-31T08:55:15;9.97;;;7.13;;
4700;SDS011;8724;51.272;6.554;2022-10-31T08:58:16;9.10;;;7.10;;
4700;SDS011;8724;51.272;6.554;2022-10-31T09:00:50;9.10;;;7.63;;
4700;SDS011;8724;51.272;6.554;2022-10-31T09:03:21;9.90;;;6.47;;
4700;SDS011;8724;51.272;6.554;2022-10-31T09:05:54;11.80;;;7.20;;
4700;SDS011;8724;51.272;6.554;2022-10-31T09:08:25;16.70;;;8.43;;
4700;SDS011;8724;51.272;6.554;2022-10-31T09:10:55;11.23;;;7.20;;
4700;SDS011;8724;51.272;6.554;2022-10-31T09:13:43;9.23;;;7.60;;
4700;SDS011;8724;51.272;6.554;2022-10-31T09:16:31;10.93;;;8.17;;
4700;SDS011;8724;51.272;6.554;2022-10-31T09:19:00;9.70;;;7.07;;
4700;SDS011;8724;51.272;6.554;2022-10-31T09:21:34;11.87;;;7.33;;
4700;SDS011;8724;51.272;6.554;2022-10-31T09:24:05;10.77;;;6.47;;
4700;SDS011;8724;51.272;6.554;2022-10-31T09:26:34;12.60;;;8.00;;
4700;SDS011;8724;51.272;6.554;2022-10-31T09:29:37;9.00;;;6.90;;
4700;SDS011;8724;51.272;6.554;2022-10-31T09:32:08;10.93;;;7.30;;
4700;SDS011;8724;51.272;6.554;2022-10-31T09:34:43;14.37;;;7.50;;
4700;SDS011;8724;51.272;6.554;2022-10-31T09:37:15;10.60;;;7.60;;
4700;SDS011;8724;51.272;6.554;2022-10-31T09:39:45;9.70;;;7.57;;
4700;SDS011;8724;51.272;6.554;2022-10-31T09:45:21;9.97;;;7.33;;
4700;SDS011;8724;51.272;6.554;2022-10-31T09:48:05;15.93;;;8.47;;
4700;SDS011;8724;51.272;6.554;2022-10-31T09:51:04;10.73;;;8.33;;
4700;SDS011;8724;51.272;6.554;2022-10-31T09:53:59;8.63;;;7.70;;
4700;SDS011;8724;51.272;6.554;2022-10-31T09:56:34;13.53;;;7.90;;
4700;SDS011;8724;51.272;6.554;2022-10-31T09:59:04;11.00;;;6.87;;
4700;SDS011;8724;51.272;6.554;2022-10-31T10:01:41;9.47;;;6.77;;
4700;SDS011;8724;51.272;6.554;2022-10-31T10:04:29;9.03;;;5.80;;
4700;SDS011;8724;51.272;6.554;2022-10-31T10:07:12;9.30;;;7.00;;
4700;SDS011;8724;51.272;6.554;2022-10-31T10:10:21;28.57;;;25.03;;
4700;SDS011;8724;51.272;6.554;2022-10-31T10:13:19;39.93;;;31.20;;
4700;SDS011;8724;51.272;6.554;2022-10-31T10:16:00;26.13;;;21.20;;
4700;SDS011;8724;51.272;6.554;2022-10-31T10:18:43;21.70;;;15.10;;
4700;SDS011;8724;51.272;6.554;2022-10-31T10:21:24;14.90;;;11.77;;
4700;SDS011;8724;51.272;6.554;2022-10-31T10:24:03;13.40;;;10.50;;
4700;SDS011;8724;51.272;6.554;2022-10-31T10:26:41;11.50;;;8.57;;
4700;SDS011;8724;51.272;6.554;2022-10-31T10:29:22;10.83;;;8.40;;
4700;SDS011;8724;51.272;6.554;2022-10-31T10:32:01;13.13;;;7.57;;
4700;SDS011;8724;51.272;6.554;2022-10-31T10:34:34;7.93;;;6.63;;
4700;SDS011;8724;51.272;6.554;2022-10-31T10:37:08;11.47;;;6.90;;
4700;SDS011;8724;51.272;6.554;2022-10-31T10:39:45;7.70;;;6.23;;
4700;SDS011;8724;51.272;6.554;2022-10-31T10:42:15;9.90;;;8.20;;
4700;SDS011;8724;51.272;6.554;2022-10-31T10:45:06;11.43;;;6.57;;
4700;SDS011;8724;51.272;6.554;2022-10-31T10:48:02;13.10;;;7.20;;
4700;SDS011;8724;51.272;6.554;2022-10-31T10:50:36;9.23;;;6.50;;
4700;SDS011;8724;51.272;6.554;2022-10-31T10:53:12;8.57;;;7.30;;
4700;SDS011;8724;51.272;6.554;2022-10-31T10:56:30;9.20;;;7.33;;
4700;SDS011;8724;51.272;6.554;2022-10-31T10:59:06;7.47;;;5.83;;
4700;SDS011;8724;51.272;6.554;2022-10-31T11:01:40;6.40;;;5.53;;
4700;SDS011;8724;51.272;6.554;2022-10-31T11:04:25;6.50;;;5.53;;
4700;SDS011;8724;51.272;6.554;2022-10-31T11:06:58;8.97;;;6.47;;
4700;SDS011;8724;51.272;6.554;2022-10-31T11:09:28;8.80;;;5.83;;
4700;SDS011;8724;51.272;6.554;2022-10-31T11:11:56;6.70;;;5.37;;
4700;SDS011;8724;51.272;6.554;2022-10-31T11:14:26;8.00;;;5.83;;
4700;SDS011;8724;51.272;6.554;2022-10-31T11:17:09;9.10;;;5.90;;
4700;SDS011;8724;51.272;6.554;2022-10-31T11:19:43;9.93;;;5.97;;
4700;SDS011;8724;51.272;6.554;2022-10-31T11:22:14;8.40;;;6.00;;
4700;SDS011;8724;51.272;6.554;2022-10-31T11:24:44;7.47;;;5.47;;
4700;SDS011;8724;51.272;6.554;2022-10-31T11:27:14;6.87;;;5.70;;
4700;SDS011;8724;51.272;6.554;2022-10-31T11:29:44;9.87;;;6.10;;
4700;SDS011;8724;51.272;6.554;2022-10-31T11:32:19;7.13;;;5.10;;
4700;SDS011;8724;51.272;6.554;2022-10-31T11:34:50;5.73;;;5.13;;
4700;SDS011;8724;51.272;6.554;2022-10-31T11:37:21;10.97;;;6.40;;
4700;SDS011;8724;51.272;6.554;2022-10-31T11:39:53;7.17;;;5.13;;
4700;SDS011;8724;51.272;6.554;2022-10-31T11:42:24;9.03;;;5.90;;
4700;SDS011;8724;51.272;6.554;2022-10-31T11:44:55;8.20;;;6.10;;
4700;SDS011;8724;51.272;6.554;2022-10-31T11:47:27;7.10;;;5.80;;
4700;SDS011;8724;51.272;6.554;2022-10-31T11:50:00;7.10;;;6.27;;
4700;SDS011;8724;51.272;6.554;2022-10-31T11:52:36;14.23;;;9.20;;
4700;SDS011;8724;51.272;6.554;2022-10-31T11:55:14;12.17;;;10.37;;
4700;SDS011;8724;51.272;6.554;2022-10-31T11:57:57;13.00;;;9.73;;
4700;SDS011;8724;51.272;6.554;2022-10-31T12:00:26;9.60;;;8.57;;
4700;SDS011;8724;51.272;6.554;2022-10-31T12:03:13;10.33;;;8.40;;
4700;SDS011;8724;51.272;6.554;2022-10-31T12:05:56;8.00;;;7.20;;
4700;SDS011;8724;51.272;6.554;2022-10-31T12:08:29;8.77;;;6.23;;
4700;SDS011;8724;51.272;6.554;2022-10-31T12:13:54;7.97;;;5.90;;
4700;SDS011;8724;51.272;6.554;2022-10-31T12:16:36;7.90;;;5.90;;
4700;SDS011;8724;51.272;6.554;2022-10-31T12:19:17;7.47;;;4.70;;
4700;SDS011;8724;51.272;6.554;2022-10-31T12:24:50;5.33;;;4.40;;
4700;SDS011;8724;51.272;6.554;2022-10-31T12:27:39;9.20;;;5.93;;
4700;SDS011;8724;51.272;6.554;2022-10-31T12:30:23;5.70;;;4.80;;
4700;SDS011;8724;51.272;6.554;2022-10-31T12:33:16;7.73;;;4.20;;
4700;SDS011;8724;51.272;6.554;2022-10-31T12:35:57;7.27;;;4.60;;
4700;SDS011;8724;51.272;6.554;2022-10-31T12:38:54;5.67;;;3.90;;
4700;SDS011;8724;51.272;6.554;2022-10-31T12:41:35;4.80;;;3.30;;
4700;SDS011;8724;51.272;6.554;2022-10-31T12:44:26;5.03;;;4.03;;
4700;SDS011;8724;51.272;6.554;2022-10-31T12:47:27;10.03;;;4.37;;
4700;SDS011;8724;51.272;6.554;2022-10-31T12:50:16;5.23;;;4.70;;
4700;SDS011;8724;51.272;6.554;2022-10-31T12:52:58;15.60;;;13.30;;
4700;SDS011;8724;51.272;6.554;2022-10-31T12:55:38;19.57;;;14.83;;
4700;SDS011;8724;51.272;6.554;2022-10-31T12:58:14;13.50;;;11.07;;
4700;SDS011;8724;51.272;6.554;2022-10-31T13:00:48;11.80;;;9.90;;
4700;SDS011;8724;51.272;6.554;2022-10-31T13:03:25;10.03;;;8.00;;
4700;SDS011;8724;51.272;6.554;2022-10-31T13:06:02;10.03;;;7.20;;
4700;SDS011;8724;51.272;6.554;2022-10-31T13:08:38;9.73;;;6.43;;
4700;SDS011;8724;51.272;6.554;2022-10-31T13:11:11;6.77;;;6.07;;
4700;SDS011;8724;51.272;6.554;2022-10-31T13:13:47;6.57;;;5.63;;
4700;SDS011;8724;51.272;6.554;2022-10-31T13:16:21;8.40;;;4.50;;
4700;SDS011;8724;51.272;6.554;2022-10-31T13:18:54;5.43;;;4.43;;
4700;SDS011;8724;51.272;6.554;2022-10-31T13:21:26;4.47;;;3.90;;
4700;SDS011;8724;51.272;6.554;2022-10-31T13:24:00;5.17;;;4.20;;
4700;SDS011;8724;51.272;6.554;2022-10-31T13:26:36;4.40;;;3.77;;
4700;SDS011;8724;51.272;6.554;2022-10-31T13:29:11;5.03;;;4.23;;
4700;SDS011;8724;51.272;6.554;2022-10-31T13:31:44;5.90;;;4.17;;
4700;SDS011;8724;51.272;6.554;2022-10-31T13:34:24;4.90;;;3.60;;
4700;SDS011;8724;51.272;6.554;2022-10-31T13:36:58;3.67;;;3.13;;
4700;SDS011;8724;51.272;6.554;2022-10-31T13:39:38;3.90;;;3.20;;
4700;SDS011;8724;51.272;6.554;2022-10-31T13:42:15;3.20;;;2.90;;
4700;SDS011;8724;51.272;6.554;2022-10-31T13:44:49;4.80;;;3.20;;
4700;SDS011;8724;51.272;6.554;2022-10-31T13:47:22;5.00;;;3.77;;
4700;SDS011;8724;51.272;6.554;2022-10-31T13:50:03;4.40;;;4.00;;
4700;SDS011;8724;51.272;6.554;2022-10-31T13:52:33;5.00;;;3.50;;
4700;SDS011;8724;51.272;6.554;2022-10-31T13:55:03;4.53;;;3.30;;
4700;SDS011;8724;51.272;6.554;2022-10-31T13:57:33;5.80;;;3.43;;
4700;SDS011;8724;51.272;6.554;2022-10-31T14:00:12;3.93;;;3.03;;
4700;SDS011;8724;51.272;6.554;2022-10-31T14:02:53;3.97;;;2.97;;
4700;SDS011;8724;51.272;6.554;2022-10-31T14:05:25;7.60;;;3.80;;
4700;SDS011;8724;51.272;6.554;2022-10-31T14:07:55;4.83;;;3.33;;
4700;SDS011;8724;51.272;6.554;2022-10-31T14:10:27;5.13;;;3.23;;
4700;SDS011;8724;51.272;6.554;2022-10-31T14:13:03;4.60;;;3.40;;
4700;SDS011;8724;51.272;6.554;2022-10-31T14:15:33;6.00;;;3.47;;
4700;SDS011;8724;51.272;6.554;2022-10-31T14:18:03;5.50;;;3.20;;
4700;SDS011;8724;51.272;6.554;2022-10-31T14:20:36;7.40;;;3.33;;
4700;SDS011;8724;51.272;6.554;2022-10-31T14:29:02;4.10;;;3.00;;
4700;SDS011;8724;51.272;6.554;2022-10-31T14:31:51;3.30;;;2.70;;
4700;SDS011;8724;51.272;6.554;2022-10-31T14:34:23;7.93;;;3.03;;
4700;SDS011;8724;51.272;6.554;2022-10-31T14:36:59;9.67;;;3.40;;
4700;SDS011;8724;51.272;6.554;2022-10-31T14:39:37;6.57;;;3.57;;
4700;SDS011;8724;51.272;6.554;2022-10-31T14:42:22;5.27;;;3.80;;
4700;SDS011;8724;51.272;6.554;2022-10-31T14:45:12;7.70;;;4.23;;
4700;SDS011;8724;51.272;6.554;2022-10-31T14:47:51;4.87;;;2.40;;
4700;SDS011;8724;51.272;6.554;2022-10-31T14:50:39;7.83;;;3.57;;
4700;SDS011;8724;51.272;6.554;2022-10-31T14:53:14;5.47;;;3.10;;
4700;SDS011;8724;51.272;6.554;2022-10-31T14:55:47;3.33;;;3.03;;
4700;SDS011;8724;51.272;6.554;2022-10-31T14:58:21;4.20;;;2.77;;
4700;SDS011;8724;51.272;6.554;2022-10-31T15:00:53;3.43;;;2.73;;
4700;SDS011;8724;51.272;6.554;2022-10-31T15:03:26;5.83;;;3.07;;
4700;SDS011;8724;51.272;6.554;2022-10-31T15:05:59;4.40;;;3.47;;
4700;SDS011;8724;51.272;6.554;2022-10-31T15:08:33;3.93;;;2.57;;
4700;SDS011;8724;51.272;6.554;2022-10-31T15:11:03;3.67;;;2.53;;
4700;SDS011;8724;51.272;6.554;2022-10-31T15:13:42;6.37;;;3.23;;
4700;SDS011;8724;51.272;6.554;2022-10-31T15:16:12;11.10;;;5.03;;
4700;SDS011;8724;51.272;6.554;2022-10-31T15:18:47;4.93;;;3.30;;
4700;SDS011;8724;51.272;6.554;2022-10-31T15:21:23;5.73;;;3.23;;
4700;SDS011;8724;51.272;6.554;2022-10-31T15:23:55;4.97;;;3.30;;
4700;SDS011;8724;51.272;6.554;2022-10-31T15:26:26;4.63;;;2.87;;
4700;SDS011;8724;51.272;6.554;2022-10-31T15:29:00;3.47;;;2.90;;
4700;SDS011;8724;51.272;6.554;2022-10-31T15:31:30;3.13;;;2.37;;
4700;SDS011;8724;51.272;6.554;2022-10-31T15:34:01;6.87;;;3.57;;
4700;SDS011;8724;51.272;6.554;2022-10-31T15:36:33;4.30;;;3.07;;
4700;SDS011;8724;51.272;6.554;2022-10-31T15:39:04;3.83;;;2.73;;
4700;SDS011;8724;51.272;6.554;2022-10-31T15:41:33;4.33;;;3.37;;
4700;SDS011;8724;51.272;6.554;2022-10-31T15:44:23;18.00;;;13.07;;
4700;SDS011;8724;51.272;6.554;2022-10-31T15:46:54;15.60;;;10.30;;
4700;SDS011;8724;51.272;6.554;2022-10-31T15:49:34;10.80;;;8.03;;
4700;SDS011;8724;51.272;6.554;2022-10-31T15:52:10;10.90;;;7.10;;
4700;SDS011;8724;51.272;6.554;2022-10-31T15:54:44;7.87;;;5.80;;
4700;SDS011;8724;51.272;6.554;2022-10-31T15:57:16;8.53;;;6.00;;
4700;SDS011;8724;51.272;6.554;2022-10-31T15:59:47;11.77;;;5.30;;
4700;SDS011;8724;51.272;6.554;2022-10-31T16:02:18;4.13;;;3.60;;
4700;SDS011;8724;51.272;6.554;2022-10-31T16:04:49;6.23;;;4.13;;
4700;SDS011;8724;51.272;6.554;2022-10-31T16:07:20;4.10;;;3.00;;
4700;SDS011;8724;51.272;6.554;2022-10-31T16:09:50;3.80;;;3.23;;
4700;SDS011;8724;51.272;6.554;2022-10-31T16:12:20;3.00;;;2.70;;
4700;SDS011;8724;51.272;6.554;2022-10-31T16:14:51;7.53;;;3.90;;
4700;SDS011;8724;51.272;6.554;2022-10-31T16:17:22;4.27;;;2.90;;